sensor_id;sensor_type;location;lat;lon;timestamp;pressure;altitude;pressure_sealevel;temperature;humidity
23433;BME280;41331;45.412;10.992;2022-08-26T00:01:54;100588.16;;;25.87;60.99
23433;BME280;41331;45.412;10.992;2022-08-26T00:04:23;100583.22;;;25.94;61.04
23433;BME280;41331;45.412;10.992;2022-08-26T00:06:53;100579.19;;;25.95;60.63
23433;BME280;41331;45.412;10.992;2022-08-26T00:09:22;100578.63;;;25.84;60.53
23433;BME280;41331;45.412;10.992;2022-08-26T00:11:52;100586.72;;;25.78;60.37
23433;BME280;41331;45.412;10.992;2022-08-26T00:14:21;100587.50;;;25.79;60.69
23433;BME280;41331;45.412;10.992;2022-08-26T00:16:55;100587.50;;;25.99;59.78
23433;BME280;41331;45.412;10.992;2022-08-26T00:19:23;100587.94;;;25.97;60.26
23433;BME280;41331;45.412;10.992;2022-08-26T00:21:51;100580.16;;;25.89;60.63
23433;BME280;41331;45.412;10.992;2022-08-26T00:24:19;100587.94;;;25.77;61.26
23433;BME280;41331;45.412;10.992;2022-08-26T00:26:48;100581.28;;;25.71;61.06
23433;BME280;41331;45.412;10.992;2022-08-26T00:29:16;100581.63;;;25.73;61.76
23433;BME280;41331;45.412;10.992;2022-08-26T00:31:44;100574.50;;;25.92;60.72
23433;BME280;41331;45.412;10.992;2022-08-26T00:34:12;100579.56;;;25.97;60.75
23433;BME280;41331;45.412;10.992;2022-08-26T00:36:42;100581.56;;;26.17;59.27
23433;BME280;41331;45.412;10.992;2022-08-26T00:39:10;100590.97;;;26.23;59.63
23433;BME280;41331;45.412;10.992;2022-08-26T00:41:39;100584.88;;;25.92;60.71
23433;BME280;41331;45.412;10.992;2022-08-26T00:44:08;100588.66;;;25.81;61.87
23433;BME280;41331;45.412;10.992;2022-08-26T00:46:56;100578.75;;;25.57;62.68
23433;BME280;41331;45.412;10.992;2022-08-26T00:49:37;100576.59;;;25.45;62.86
23433;BME280;41331;45.412;10.992;2022-08-26T00:52:13;100566.31;;;25.42;63.75
23433;BME280;41331;45.412;10.992;2022-08-26T00:55:00;100571.38;;;25.47;63.91
23433;BME280;41331;45.412;10.992;2022-08-26T00:57:30;100567.66;;;25.53;62.95
23433;BME280;41331;45.412;10.992;2022-08-26T00:59:59;100565.66;;;25.34;64.04
23433;BME280;41331;45.412;10.992;2022-08-26T01:02:27;100570.09;;;25.31;64.08
23433;BME280;41331;45.412;10.992;2022-08-26T01:04:58;100566.09;;;25.33;64.01
23433;BME280;41331;45.412;10.992;2022-08-26T01:07:30;100569.50;;;25.20;64.59
23433;BME280;41331;45.412;10.992;2022-08-26T01:10:05;100570.44;;;25.34;64.49
23433;BME280;41331;45.412;10.992;2022-08-26T01:12:38;100567.16;;;25.39;63.44
23433;BME280;41331;45.412;10.992;2022-08-26T01:15:09;100565.75;;;25.50;63.20
23433;BME280;41331;45.412;10.992;2022-08-26T01:17:37;100563.81;;;25.47;63.02
23433;BME280;41331;45.412;10.992;2022-08-26T01:20:16;100561.81;;;25.48;62.51
23433;BME280;41331;45.412;10.992;2022-08-26T01:22:55;100564.38;;;25.39;62.80
23433;BME280;41331;45.412;10.992;2022-08-26T01:25:26;100557.88;;;25.65;61.69
23433;BME280;41331;45.412;10.992;2022-08-26T01:27:56;100546.25;;;25.50;62.26
23433;BME280;41331;45.412;10.992;2022-08-26T01:30:27;100544.75;;;25.46;63.87
23433;BME280;41331;45.412;10.992;2022-08-26T01:32:59;100548.34;;;25.23;64.88
23433;BME280;41331;45.412;10.992;2022-08-26T01:35:29;100551.41;;;25.05;66.09
23433;BME280;41331;45.412;10.992;2022-08-26T01:37:57;100539.28;;;24.95;64.79
23433;BME280;41331;45.412;10.992;2022-08-26T01:40:30;100542.94;;;24.89;65.01
23433;BME280;41331;45.412;10.992;2022-08-26T01:43:00;100541.44;;;24.84;65.11
23433;BME280;41331;45.412;10.992;2022-08-26T01:45:31;100547.69;;;24.92;65.16
23433;BME280;41331;45.412;10.992;2022-08-26T01:48:02;100537.75;;;24.91;66.29
23433;BME280;41331;45.412;10.992;2022-08-26T01:50:32;100542.28;;;25.04;65.33
23433;BME280;41331;45.412;10.992;2022-08-26T01:53:06;100544.84;;;25.19;64.35
23433;BME280;41331;45.412;10.992;2022-08-26T01:55:38;100545.38;;;25.34;64.62
23433;BME280;41331;45.412;10.992;2022-08-26T01:58:21;100548.59;;;25.09;65.56
23433;BME280;41331;45.412;10.992;2022-08-26T02:00:49;100534.56;;;25.16;65.52
23433;BME280;41331;45.412;10.992;2022-08-26T02:03:18;100543.75;;;25.13;65.90
23433;BME280;41331;45.412;10.992;2022-08-26T02:05:56;100537.94;;;25.03;65.53
23433;BME280;41331;45.412;10.992;2022-08-26T02:08:28;100542.53;;;25.14;64.41
23433;BME280;41331;45.412;10.992;2022-08-26T02:10:57;100542.75;;;24.99;65.58
23433;BME280;41331;45.412;10.992;2022-08-26T02:13:27;100537.13;;;25.07;64.91
23433;BME280;41331;45.412;10.992;2022-08-26T02:15:57;100545.19;;;24.97;65.66
23433;BME280;41331;45.412;10.992;2022-08-26T02:18:27;100542.38;;;25.01;65.20
23433;BME280;41331;45.412;10.992;2022-08-26T02:20:56;100538.31;;;25.05;64.54
23433;BME280;41331;45.412;10.992;2022-08-26T02:23:25;100543.03;;;25.09;63.71
23433;BME280;41331;45.412;10.992;2022-08-26T02:26:06;100540.06;;;25.19;64.35
23433;BME280;41331;45.412;10.992;2022-08-26T02:28:40;100528.06;;;25.22;64.03
23433;BME280;41331;45.412;10.992;2022-08-26T02:31:11;100534.97;;;25.14;64.79
23433;BME280;41331;45.412;10.992;2022-08-26T02:33:38;100530.06;;;24.98;64.83
23433;BME280;41331;45.412;10.992;2022-08-26T02:36:09;100532.13;;;24.94;65.07
23433;BME280;41331;45.412;10.992;2022-08-26T02:38:39;100528.78;;;24.79;65.08
23433;BME280;41331;45.412;10.992;2022-08-26T02:41:09;100529.28;;;24.74;64.85
23433;BME280;41331;45.412;10.992;2022-08-26T02:43:37;100524.97;;;24.70;65.50
23433;BME280;41331;45.412;10.992;2022-08-26T02:46:04;100523.78;;;24.71;66.88
23433;BME280;41331;45.412;10.992;2022-08-26T02:48:32;100517.06;;;24.68;66.26
23433;BME280;41331;45.412;10.992;2022-08-26T02:51:00;100526.88;;;24.76;66.46
23433;BME280;41331;45.412;10.992;2022-08-26T02:53:28;100521.16;;;24.84;66.14
23433;BME280;41331;45.412;10.992;2022-08-26T02:56:03;100511.94;;;24.90;65.37
23433;BME280;41331;45.412;10.992;2022-08-26T02:58:30;100523.41;;;24.92;65.73
23433;BME280;41331;45.412;10.992;2022-08-26T03:00:58;100507.78;;;24.98;65.49
23433;BME280;41331;45.412;10.992;2022-08-26T03:03:27;100516.44;;;25.04;65.57
23433;BME280;41331;45.412;10.992;2022-08-26T03:05:56;100512.09;;;25.03;65.99
23433;BME280;41331;45.412;10.992;2022-08-26T03:08:24;100510.56;;;24.98;64.75
23433;BME280;41331;45.412;10.992;2022-08-26T03:10:51;100505.38;;;25.00;65.02
23433;BME280;41331;45.412;10.992;2022-08-26T03:13:19;100504.94;;;25.02;64.87
23433;BME280;41331;45.412;10.992;2022-08-26T03:15:46;100500.22;;;24.99;64.82
23433;BME280;41331;45.412;10.992;2022-08-26T03:18:14;100504.94;;;25.02;65.04
23433;BME280;41331;45.412;10.992;2022-08-26T03:20:42;100502.22;;;24.98;65.04
23433;BME280;41331;45.412;10.992;2022-08-26T03:23:10;100497.53;;;24.95;64.92
23433;BME280;41331;45.412;10.992;2022-08-26T03:25:38;100504.66;;;24.96;65.10
23433;BME280;41331;45.412;10.992;2022-08-26T03:28:06;100498.50;;;25.05;65.30
23433;BME280;41331;45.412;10.992;2022-08-26T03:30:35;100492.25;;;25.01;66.22
23433;BME280;41331;45.412;10.992;2022-08-26T03:33:13;100496.78;;;24.91;66.98
23433;BME280;41331;45.412;10.992;2022-08-26T03:35:42;100496.59;;;24.78;67.58
23433;BME280;41331;45.412;10.992;2022-08-26T03:38:10;100487.84;;;24.80;67.18
23433;BME280;41331;45.412;10.992;2022-08-26T03:40:38;100493.53;;;24.73;67.02
23433;BME280;41331;45.412;10.992;2022-08-26T03:43:08;100494.69;;;24.75;67.33
23433;BME280;41331;45.412;10.992;2022-08-26T03:45:36;100490.97;;;24.59;67.89
23433;BME280;41331;45.412;10.992;2022-08-26T03:48:04;100500.03;;;24.39;68.78
23433;BME280;41331;45.412;10.992;2022-08-26T03:50:34;100501.66;;;24.37;68.66
23433;BME280;41331;45.412;10.992;2022-08-26T03:53:02;100499.28;;;24.35;68.76
23433;BME280;41331;45.412;10.992;2022-08-26T03:55:31;100494.13;;;24.34;68.81
23433;BME280;41331;45.412;10.992;2022-08-26T03:58:00;100500.91;;;24.33;68.84
23433;BME280;41331;45.412;10.992;2022-08-26T04:00:28;100494.91;;;24.34;69.17
23433;BME280;41331;45.412;10.992;2022-08-26T04:02:56;100493.34;;;24.33;68.77
23433;BME280;41331;45.412;10.992;2022-08-26T04:05:24;100491.44;;;24.30;69.19
23433;BME280;41331;45.412;10.992;2022-08-26T04:07:51;100490.13;;;24.38;69.31
23433;BME280;41331;45.412;10.992;2022-08-26T04:10:20;100492.91;;;24.35;68.82
23433;BME280;41331;45.412;10.992;2022-08-26T04:12:57;100494.91;;;24.34;69.25
23433;BME280;41331;45.412;10.992;2022-08-26T04:15:25;100501.53;;;24.44;68.96
23433;BME280;41331;45.412;10.992;2022-08-26T04:17:53;100496.06;;;24.40;69.60
23433;BME280;41331;45.412;10.992;2022-08-26T04:20:24;100495.47;;;24.25;68.96
23433;BME280;41331;45.412;10.992;2022-08-26T04:22:51;100494.28;;;24.23;68.94
23433;BME280;41331;45.412;10.992;2022-08-26T04:25:19;100493.81;;;24.28;68.53
23433;BME280;41331;45.412;10.992;2022-08-26T04:27:47;100486.34;;;24.25;68.35
23433;BME280;41331;45.412;10.992;2022-08-26T04:30:16;100492.91;;;24.35;68.54
23433;BME280;41331;45.412;10.992;2022-08-26T04:32:44;100489.00;;;24.32;67.64
23433;BME280;41331;45.412;10.992;2022-08-26T04:35:11;100490.56;;;24.33;67.72
23433;BME280;41331;45.412;10.992;2022-08-26T04:37:39;100488.38;;;24.21;67.90
23433;BME280;41331;45.412;10.992;2022-08-26T04:40:09;100491.94;;;24.21;68.04
23433;BME280;41331;45.412;10.992;2022-08-26T04:42:37;100494.28;;;24.23;68.16
23433;BME280;41331;45.412;10.992;2022-08-26T04:45:05;100493.00;;;24.31;68.12
23433;BME280;41331;45.412;10.992;2022-08-26T04:47:37;100492.47;;;24.40;68.59
23433;BME280;41331;45.412;10.992;2022-08-26T04:50:06;100495.09;;;24.50;68.86
23433;BME280;41331;45.412;10.992;2022-08-26T04:52:37;100496.91;;;24.61;68.53
23433;BME280;41331;45.412;10.992;2022-08-26T04:55:05;100499.28;;;24.62;69.00
23433;BME280;41331;45.412;10.992;2022-08-26T04:57:35;100500.09;;;24.59;68.19
23433;BME280;41331;45.412;10.992;2022-08-26T05:00:04;100499.72;;;24.61;69.29
23433;BME280;41331;45.412;10.992;2022-08-26T05:02:33;100492.19;;;24.58;69.31
23433;BME280;41331;45.412;10.992;2022-08-26T05:05:01;100499.28;;;24.62;69.42
23433;BME280;41331;45.412;10.992;2022-08-26T05:07:29;100493.56;;;24.69;69.67
23433;BME280;41331;45.412;10.992;2022-08-26T05:09:58;100494.75;;;24.72;70.43
23433;BME280;41331;45.412;10.992;2022-08-26T05:12:26;100497.03;;;24.77;70.94
23433;BME280;41331;45.412;10.992;2022-08-26T05:14:54;100491.19;;;24.71;70.09
23433;BME280;41331;45.412;10.992;2022-08-26T05:17:22;100500.16;;;24.79;69.55
23433;BME280;41331;45.412;10.992;2022-08-26T05:19:49;100492.13;;;24.85;69.58
23433;BME280;41331;45.412;10.992;2022-08-26T05:22:16;100498.84;;;24.87;68.50
23433;BME280;41331;45.412;10.992;2022-08-26T05:24:44;100496.41;;;24.89;70.77
23433;BME280;41331;45.412;10.992;2022-08-26T05:27:13;100503.94;;;24.92;69.53
23433;BME280;41331;45.412;10.992;2022-08-26T05:29:40;100510.94;;;25.00;69.16
23433;BME280;41331;45.412;10.992;2022-08-26T05:32:10;100512.53;;;25.01;68.68
23433;BME280;41331;45.412;10.992;2022-08-26T05:34:38;100505.13;;;25.15;66.49
23433;BME280;41331;45.412;10.992;2022-08-26T05:37:09;100512.88;;;25.27;64.86
23433;BME280;41331;45.412;10.992;2022-08-26T05:39:36;100514.66;;;25.37;64.69
23433;BME280;41331;45.412;10.992;2022-08-26T05:42:07;100508.53;;;25.46;64.03
23433;BME280;41331;45.412;10.992;2022-08-26T05:44:35;100511.59;;;25.51;64.64
23433;BME280;41331;45.412;10.992;2022-08-26T05:47:22;100511.66;;;25.68;63.59
23433;BME280;41331;45.412;10.992;2022-08-26T05:49:51;100515.66;;;25.67;63.05
23433;BME280;41331;45.412;10.992;2022-08-26T05:52:19;100512.00;;;25.90;62.15
23433;BME280;41331;45.412;10.992;2022-08-26T05:54:46;100517.16;;;25.91;61.98
23433;BME280;41331;45.412;10.992;2022-08-26T05:57:14;100515.31;;;25.85;63.83
23433;BME280;41331;45.412;10.992;2022-08-26T05:59:44;100515.47;;;25.77;65.03
23433;BME280;41331;45.412;10.992;2022-08-26T06:02:12;100521.84;;;25.74;65.49
23433;BME280;41331;45.412;10.992;2022-08-26T06:04:39;100526.72;;;25.90;65.47
23433;BME280;41331;45.412;10.992;2022-08-26T06:07:07;100525.91;;;26.09;62.13
23433;BME280;41331;45.412;10.992;2022-08-26T06:09:38;100527.25;;;26.21;62.00
23433;BME280;41331;45.412;10.992;2022-08-26T06:12:05;100530.22;;;26.30;61.70
23433;BME280;41331;45.412;10.992;2022-08-26T06:14:33;100534.66;;;26.28;60.71
23433;BME280;41331;45.412;10.992;2022-08-26T06:17:02;100537.13;;;26.26;60.14
23433;BME280;41331;45.412;10.992;2022-08-26T06:19:29;100534.50;;;26.35;59.76
23433;BME280;41331;45.412;10.992;2022-08-26T06:22:00;100538.44;;;26.38;59.50
23433;BME280;41331;45.412;10.992;2022-08-26T06:24:49;100535.97;;;26.40;59.26
23433;BME280;41331;45.412;10.992;2022-08-26T06:27:36;100536.47;;;26.54;59.35
23433;BME280;41331;45.412;10.992;2022-08-26T06:30:03;100546.41;;;26.55;59.00
23433;BME280;41331;45.412;10.992;2022-08-26T06:32:32;100537.84;;;26.79;59.52
23433;BME280;41331;45.412;10.992;2022-08-26T06:34:59;100548.66;;;26.93;58.66
23433;BME280;41331;45.412;10.992;2022-08-26T06:37:27;100544.13;;;26.99;58.19
23433;BME280;41331;45.412;10.992;2022-08-26T06:39:55;100545.41;;;27.27;57.71
23433;BME280;41331;45.412;10.992;2022-08-26T06:42:23;100552.34;;;27.52;57.35
23433;BME280;41331;45.412;10.992;2022-08-26T06:44:51;100551.28;;;28.17;55.13
23433;BME280;41331;45.412;10.992;2022-08-26T06:47:18;100541.22;;;29.18;52.96
23433;BME280;41331;45.412;10.992;2022-08-26T06:49:46;100544.19;;;29.80;50.70
23433;BME280;41331;45.412;10.992;2022-08-26T06:52:15;100545.78;;;31.20;46.71
23433;BME280;41331;45.412;10.992;2022-08-26T06:54:50;100543.50;;;32.07;44.29
23433;BME280;41331;45.412;10.992;2022-08-26T06:57:19;100538.78;;;33.03;42.55
23433;BME280;41331;45.412;10.992;2022-08-26T06:59:47;100534.97;;;34.34;40.71
23433;BME280;41331;45.412;10.992;2022-08-26T07:02:17;100528.53;;;34.33;40.60
23433;BME280;41331;45.412;10.992;2022-08-26T07:04:46;100538.72;;;33.12;41.13
23433;BME280;41331;45.412;10.992;2022-08-26T07:07:17;100542.03;;;32.20;43.12
23433;BME280;41331;45.412;10.992;2022-08-26T07:09:48;100528.41;;;31.67;44.64
23433;BME280;41331;45.412;10.992;2022-08-26T07:12:18;100538.13;;;31.20;45.72
23433;BME280;41331;45.412;10.992;2022-08-26T07:14:46;100536.41;;;31.14;45.43
23433;BME280;41331;45.412;10.992;2022-08-26T07:17:14;100541.53;;;31.15;44.94
23433;BME280;41331;45.412;10.992;2022-08-26T07:19:42;100538.72;;;30.97;45.24
23433;BME280;41331;45.412;10.992;2022-08-26T07:22:09;100537.47;;;30.89;45.34
23433;BME280;41331;45.412;10.992;2022-08-26T07:24:38;100534.97;;;30.91;44.45
23433;BME280;41331;45.412;10.992;2022-08-26T07:27:13;100541.06;;;31.17;44.49
23433;BME280;41331;45.412;10.992;2022-08-26T07:29:43;100547.31;;;31.12;44.67
23433;BME280;41331;45.412;10.992;2022-08-26T07:32:13;100538.75;;;31.25;44.02
23433;BME280;41331;45.412;10.992;2022-08-26T07:34:41;100538.28;;;31.54;43.45
23433;BME280;41331;45.412;10.992;2022-08-26T07:37:10;100543.09;;;31.71;43.07
23433;BME280;41331;45.412;10.992;2022-08-26T07:39:38;100538.38;;;31.96;42.32
23433;BME280;41331;45.412;10.992;2022-08-26T07:42:11;100543.72;;;31.85;42.92
23433;BME280;41331;45.412;10.992;2022-08-26T07:44:40;100549.44;;;32.09;42.46
23433;BME280;41331;45.412;10.992;2022-08-26T07:47:08;100539.25;;;32.11;42.93
23433;BME280;41331;45.412;10.992;2022-08-26T07:49:54;100546.53;;;31.85;42.20
23433;BME280;41331;45.412;10.992;2022-08-26T07:52:23;100538.84;;;31.94;42.92
23433;BME280;41331;45.412;10.992;2022-08-26T07:54:57;100542.84;;;32.12;42.60
23433;BME280;41331;45.412;10.992;2022-08-26T07:57:26;100548.19;;;32.76;41.45
23433;BME280;41331;45.412;10.992;2022-08-26T07:59:54;100544.97;;;32.92;42.21
23433;BME280;41331;45.412;10.992;2022-08-26T08:02:24;100540.44;;;32.95;41.09
23433;BME280;41331;45.412;10.992;2022-08-26T08:04:51;100542.09;;;33.02;40.02
23433;BME280;41331;45.412;10.992;2022-08-26T08:07:20;100545.56;;;32.96;39.95
23433;BME280;41331;45.412;10.992;2022-08-26T08:10:05;100543.63;;;33.03;40.72
23433;BME280;41331;45.412;10.992;2022-08-26T08:12:38;100539.66;;;32.94;40.38
23433;BME280;41331;45.412;10.992;2022-08-26T08:15:08;100536.19;;;33.68;38.68
23433;BME280;41331;45.412;10.992;2022-08-26T08:17:37;100540.78;;;33.80;39.08
23433;BME280;41331;45.412;10.992;2022-08-26T08:20:05;100533.09;;;33.81;39.30
23433;BME280;41331;45.412;10.992;2022-08-26T08:22:34;100531.66;;;34.00;37.59
23433;BME280;41331;45.412;10.992;2022-08-26T08:25:03;100532.09;;;33.84;40.21
23433;BME280;41331;45.412;10.992;2022-08-26T08:27:35;100538.75;;;34.10;39.60
23433;BME280;41331;45.412;10.992;2022-08-26T08:30:04;100544.13;;;34.28;38.54
23433;BME280;41331;45.412;10.992;2022-08-26T08:32:32;100541.38;;;33.99;39.13
23433;BME280;41331;45.412;10.992;2022-08-26T08:35:01;100533.00;;;33.90;39.92
23433;BME280;41331;45.412;10.992;2022-08-26T08:37:37;100533.69;;;34.14;39.90
23433;BME280;41331;45.412;10.992;2022-08-26T08:40:04;100526.38;;;34.08;39.76
23433;BME280;41331;45.412;10.992;2022-08-26T08:42:37;100533.78;;;34.05;38.65
23433;BME280;41331;45.412;10.992;2022-08-26T08:47:55;100531.72;;;34.06;38.88
23433;BME280;41331;45.412;10.992;2022-08-26T08:50:33;100530.91;;;34.35;38.75
23433;BME280;41331;45.412;10.992;2022-08-26T08:53:15;100524.19;;;35.08;36.74
23433;BME280;41331;45.412;10.992;2022-08-26T08:58:18;100522.00;;;34.42;38.17
23433;BME280;41331;45.412;10.992;2022-08-26T09:01:00;100518.06;;;34.54;38.17
23433;BME280;41331;45.412;10.992;2022-08-26T09:06:27;100513.72;;;34.38;38.96
23433;BME280;41331;45.412;10.992;2022-08-26T09:08:55;100510.19;;;34.58;37.56
23433;BME280;41331;45.412;10.992;2022-08-26T09:11:23;100510.81;;;35.09;36.75
23433;BME280;41331;45.412;10.992;2022-08-26T09:13:54;100509.34;;;35.39;35.60
23433;BME280;41331;45.412;10.992;2022-08-26T09:19:07;100509.38;;;35.65;35.13
23433;BME280;41331;45.412;10.992;2022-08-26T09:21:37;100512.94;;;35.60;34.08
23433;BME280;41331;45.412;10.992;2022-08-26T09:24:06;100507.78;;;35.90;33.83
23433;BME280;41331;45.412;10.992;2022-08-26T09:29:07;100506.56;;;35.65;34.41
23433;BME280;41331;45.412;10.992;2022-08-26T09:31:40;100505.09;;;36.07;34.18
23433;BME280;41331;45.412;10.992;2022-08-26T09:34:21;100508.50;;;35.07;35.45
23433;BME280;41331;45.412;10.992;2022-08-26T09:36:50;100496.25;;;35.42;35.56
23433;BME280;41331;45.412;10.992;2022-08-26T09:42:12;100492.44;;;35.71;35.08
23433;BME280;41331;45.412;10.992;2022-08-26T09:45:00;100494.97;;;35.43;34.97
23433;BME280;41331;45.412;10.992;2022-08-26T09:55:41;100488.00;;;35.12;35.63
23433;BME280;41331;45.412;10.992;2022-08-26T09:58:14;100486.72;;;34.17;36.86
23433;BME280;41331;45.412;10.992;2022-08-26T10:00:55;100485.03;;;35.01;35.40
23433;BME280;41331;45.412;10.992;2022-08-26T10:03:26;100479.56;;;35.44;34.73
23433;BME280;41331;45.412;10.992;2022-08-26T10:06:03;100479.88;;;36.09;34.18
23433;BME280;41331;45.412;10.992;2022-08-26T10:11:06;100470.66;;;36.20;34.03
23433;BME280;41331;45.412;10.992;2022-08-26T10:13:40;100476.47;;;35.99;34.30
23433;BME280;41331;45.412;10.992;2022-08-26T10:16:17;100468.59;;;35.51;34.62
23433;BME280;41331;45.412;10.992;2022-08-26T10:19:08;100463.44;;;35.50;34.91
23433;BME280;41331;45.412;10.992;2022-08-26T10:21:44;100462.66;;;35.81;34.28
23433;BME280;41331;45.412;10.992;2022-08-26T10:24:46;100462.34;;;35.73;35.81
23433;BME280;41331;45.412;10.992;2022-08-26T10:27:26;100457.06;;;35.55;35.64
23433;BME280;41331;45.412;10.992;2022-08-26T10:30:04;100462.47;;;36.27;34.87
23433;BME280;41331;45.412;10.992;2022-08-26T10:32:37;100459.50;;;35.73;34.78
23433;BME280;41331;45.412;10.992;2022-08-26T10:35:11;100459.22;;;36.40;33.29
23433;BME280;41331;45.412;10.992;2022-08-26T10:37:48;100457.38;;;36.37;34.54
23433;BME280;41331;45.412;10.992;2022-08-26T10:40:26;100450.41;;;36.33;32.86
23433;BME280;41331;45.412;10.992;2022-08-26T10:43:05;100458.75;;;36.47;33.25
23433;BME280;41331;45.412;10.992;2022-08-26T10:45:42;100441.97;;;35.95;34.26
23433;BME280;41331;45.412;10.992;2022-08-26T10:48:21;100443.41;;;36.82;33.30
23433;BME280;41331;45.412;10.992;2022-08-26T10:50:50;100443.06;;;36.52;34.53
23433;BME280;41331;45.412;10.992;2022-08-26T10:56:06;100434.63;;;35.83;35.72
23433;BME280;41331;45.412;10.992;2022-08-26T11:04:35;100427.81;;;35.38;35.86
23433;BME280;41331;45.412;10.992;2022-08-26T11:07:50;100422.41;;;34.88;36.26
23433;BME280;41331;45.412;10.992;2022-08-26T11:13:01;100430.16;;;35.13;35.00
23433;BME280;41331;45.412;10.992;2022-08-26T11:18:03;100416.16;;;35.04;36.86
23433;BME280;41331;45.412;10.992;2022-08-26T11:20:45;100422.38;;;35.08;36.79
23433;BME280;41331;45.412;10.992;2022-08-26T11:34:12;100411.31;;;34.43;37.02
23433;BME280;41331;45.412;10.992;2022-08-26T11:36:42;100411.06;;;34.62;36.12
23433;BME280;41331;45.412;10.992;2022-08-26T11:41:52;100404.19;;;34.68;36.23
23433;BME280;41331;45.412;10.992;2022-08-26T11:44:23;100400.25;;;34.40;37.09
23433;BME280;41331;45.412;10.992;2022-08-26T11:49:20;100399.25;;;35.67;36.11
23433;BME280;41331;45.412;10.992;2022-08-26T11:51:47;100400.38;;;35.81;34.28
23433;BME280;41331;45.412;10.992;2022-08-26T11:54:17;100390.13;;;34.33;36.74
23433;BME280;41331;45.412;10.992;2022-08-26T11:57:03;100391.31;;;34.06;36.95
23433;BME280;41331;45.412;10.992;2022-08-26T11:59:39;100384.22;;;34.31;36.84
23433;BME280;41331;45.412;10.992;2022-08-26T12:02:15;100373.31;;;34.24;37.12
23433;BME280;41331;45.412;10.992;2022-08-26T12:04:46;100380.00;;;34.88;37.15
23433;BME280;41331;45.412;10.992;2022-08-26T12:07:16;100374.91;;;34.92;34.95
23433;BME280;41331;45.412;10.992;2022-08-26T12:09:53;100374.34;;;35.14;35.40
23433;BME280;41331;45.412;10.992;2022-08-26T12:12:32;100367.63;;;35.06;35.96
23433;BME280;41331;45.412;10.992;2022-08-26T12:15:10;100360.13;;;35.02;35.94
23433;BME280;41331;45.412;10.992;2022-08-26T12:17:39;100367.84;;;35.34;35.74
23433;BME280;41331;45.412;10.992;2022-08-26T12:20:22;100366.75;;;35.25;36.99
23433;BME280;41331;45.412;10.992;2022-08-26T12:22:56;100357.81;;;35.01;35.95
23433;BME280;41331;45.412;10.992;2022-08-26T12:25:25;100348.56;;;34.80;36.73
23433;BME280;41331;45.412;10.992;2022-08-26T12:28:02;100350.53;;;35.20;37.26
23433;BME280;41331;45.412;10.992;2022-08-26T12:30:31;100348.03;;;35.02;37.47
23433;BME280;41331;45.412;10.992;2022-08-26T12:33:06;100341.69;;;34.87;36.34
23433;BME280;41331;45.412;10.992;2022-08-26T12:35:49;100346.06;;;34.88;36.14
23433;BME280;41331;45.412;10.992;2022-08-26T12:38:24;100338.47;;;34.73;36.48
23433;BME280;41331;45.412;10.992;2022-08-26T12:40:52;100335.69;;;34.99;36.32
23433;BME280;41331;45.412;10.992;2022-08-26T12:46:12;100334.09;;;35.24;36.14
23433;BME280;41331;45.412;10.992;2022-08-26T12:48:42;100327.88;;;35.20;36.91
23433;BME280;41331;45.412;10.992;2022-08-26T12:51:23;100328.84;;;35.86;33.98
23433;BME280;41331;45.412;10.992;2022-08-26T12:53:52;100322.03;;;35.61;34.55
23433;BME280;41331;45.412;10.992;2022-08-26T13:01:36;100304.19;;;35.49;36.73
23433;BME280;41331;45.412;10.992;2022-08-26T13:04:04;100307.97;;;35.41;36.71
23433;BME280;41331;45.412;10.992;2022-08-26T13:06:33;100289.47;;;35.88;35.96
23433;BME280;41331;45.412;10.992;2022-08-26T13:14:21;100289.13;;;35.69;35.94
23433;BME280;41331;45.412;10.992;2022-08-26T13:16:51;100287.22;;;35.49;36.80
23433;BME280;41331;45.412;10.992;2022-08-26T13:19:21;100283.06;;;35.13;36.04
23433;BME280;41331;45.412;10.992;2022-08-26T13:21:54;100274.78;;;34.78;36.20
23433;BME280;41331;45.412;10.992;2022-08-26T13:24:36;100276.06;;;35.03;36.89
23433;BME280;41331;45.412;10.992;2022-08-26T13:27:06;100274.59;;;35.13;36.00
23433;BME280;41331;45.412;10.992;2022-08-26T13:29:34;100267.47;;;35.55;34.64
23433;BME280;41331;45.412;10.992;2022-08-26T13:32:03;100265.84;;;35.11;35.14
23433;BME280;41331;45.412;10.992;2022-08-26T13:34:31;100273.22;;;35.35;35.04
23433;BME280;41331;45.412;10.992;2022-08-26T13:36:58;100264.75;;;35.40;36.80
23433;BME280;41331;45.412;10.992;2022-08-26T13:39:26;100267.91;;;35.11;37.29
23433;BME280;41331;45.412;10.992;2022-08-26T13:41:53;100269.22;;;35.15;36.01
23433;BME280;41331;45.412;10.992;2022-08-26T13:44:20;100260.13;;;35.00;36.32
23433;BME280;41331;45.412;10.992;2022-08-26T13:46:48;100261.09;;;34.97;36.54
23433;BME280;41331;45.412;10.992;2022-08-26T13:49:15;100254.75;;;34.50;36.74
23433;BME280;41331;45.412;10.992;2022-08-26T13:51:43;100255.13;;;34.63;37.24
23433;BME280;41331;45.412;10.992;2022-08-26T13:54:10;100250.47;;;34.86;36.72
23433;BME280;41331;45.412;10.992;2022-08-26T13:56:38;100256.97;;;34.66;36.78
23433;BME280;41331;45.412;10.992;2022-08-26T13:59:05;100246.91;;;34.60;37.93
23433;BME280;41331;45.412;10.992;2022-08-26T14:01:34;100246.31;;;34.82;37.03
23433;BME280;41331;45.412;10.992;2022-08-26T14:04:01;100254.47;;;35.00;37.41
23433;BME280;41331;45.412;10.992;2022-08-26T14:06:29;100249.78;;;35.34;36.84
23433;BME280;41331;45.412;10.992;2022-08-26T14:08:56;100246.47;;;35.36;35.70
23433;BME280;41331;45.412;10.992;2022-08-26T14:11:24;100244.78;;;35.12;36.33